Time;durP1;ratioP1;P1;durP2;ratioP2;P2;SDS_P1;SDS_P2;PMS_P1;PMS_P2;Temp;Humidity;BMP_temperature;BMP_pressure;BME280_temperature;BME280_humidity;BME280_pressure;Samples;Min_cycle;Max_cycle;Signal;HPM_P1;HPM_P2
2023/01/16 00:00:47;;;;;;;2.03;0.90;;;;;;;6.37;51.95;96324.16;5052457;28;20790;-72
2023/01/16 00:03:13;;;;;;;3.03;1.00;;;;;;;6.38;51.81;96317.19;5054195;28;20191;-71
2023/01/16 00:05:38;;;;;;;2.47;0.93;;;;;;;6.45;51.66;96318.22;5042772;28;20180;-72
2023/01/16 00:08:04;;;;;;;2.13;1.00;;;;;;;6.43;51.26;96307.16;5053053;28;20688;-72
2023/01/16 00:10:29;;;;;;;5.67;1.40;;;;;;;6.43;51.64;96309.75;5055252;28;20194;-73
2023/01/16 00:12:55;;;;;;;6.00;0.93;;;;;;;6.53;51.43;96307.91;5055657;28;20266;-73
2023/01/16 00:15:20;;;;;;;7.23;1.60;;;;;;;6.43;51.37;96299.34;5060778;28;20258;-72
2023/01/16 00:17:47;;;;;;;2.80;1.00;;;;;;;6.58;51.15;96304.84;5050861;28;20569;-72
2023/01/16 00:20:13;;;;;;;2.70;1.20;;;;;;;6.57;51.51;96293.59;5060454;28;20236;-72
2023/01/16 00:22:38;;;;;;;2.90;1.20;;;;;;;6.66;51.30;96288.50;5057118;28;20468;-72
2023/01/16 00:25:04;;;;;;;4.13;0.97;;;;;;;6.63;51.45;96278.38;5063244;28;20265;-73
2023/01/16 00:27:29;;;;;;;1.30;0.90;;;;;;;6.59;51.02;96270.84;5048445;28;20594;-73
2023/01/16 00:29:55;;;;;;;3.27;1.10;;;;;;;6.63;50.54;96268.75;5047664;28;20214;-72
2023/01/16 00:32:20;;;;;;;1.13;0.90;;;;;;;6.59;51.08;96265.66;5055793;28;20294;-73
2023/01/16 00:34:46;;;;;;;2.80;1.10;;;;;;;6.70;51.20;96258.56;5054835;28;20182;-72
2023/01/16 00:37:11;;;;;;;2.03;0.80;;;;;;;6.62;51.09;96254.09;5060749;28;20729;-72
2023/01/16 00:39:39;;;;;;;4.10;1.17;;;;;;;6.58;51.26;96263.19;5046795;28;20281;-72
2023/01/16 00:42:05;;;;;;;4.20;1.17;;;;;;;6.64;50.70;96256.56;5055521;28;20245;-72
2023/01/16 00:44:31;;;;;;;3.10;1.27;;;;;;;6.66;51.21;96254.66;5050390;28;20511;-71
2023/01/16 00:46:56;;;;;;;3.63;1.20;;;;;;;6.73;50.85;96243.47;5054684;28;20539;-74
2023/01/16 00:49:21;;;;;;;3.33;0.90;;;;;;;6.74;51.08;96228.66;5064054;28;20221;-73
2023/01/16 00:51:47;;;;;;;2.70;1.07;;;;;;;6.71;50.51;96231.56;5062663;28;20237;-73
2023/01/16 00:54:12;;;;;;;3.70;1.00;;;;;;;6.82;50.45;96233.91;5068363;28;20211;-72
2023/01/16 00:56:38;;;;;;;1.37;0.90;;;;;;;6.76;50.29;96235.34;5057784;28;20312;-72
2023/01/16 00:59:03;;;;;;;3.77;1.10;;;;;;;6.76;50.50;96224.13;5063997;28;20183;-74
2023/01/16 01:01:29;;;;;;;2.83;1.20;;;;;;;6.75;51.04;96225.88;5064894;28;20343;-71
2023/01/16 01:03:54;;;;;;;1.40;0.90;;;;;;;6.82;50.71;96223.50;5064304;28;20669;-71
2023/01/16 01:06:19;;;;;;;2.93;1.10;;;;;;;6.85;50.50;96217.97;5069643;28;20612;-71
2023/01/16 01:08:45;;;;;;;3.00;1.00;;;;;;;6.82;50.44;96210.47;5062536;28;20187;-71
2023/01/16 01:11:13;;;;;;;2.47;1.10;;;;;;;6.69;50.56;96197.03;5067652;28;20256;-71
2023/01/16 01:13:39;;;;;;;2.40;1.10;;;;;;;6.77;50.54;96202.31;5057069;28;20179;-70
2023/01/16 01:16:05;;;;;;;1.77;1.00;;;;;;;6.76;50.70;96198.88;5069081;28;21112;-71
2023/01/16 01:18:31;;;;;;;3.63;0.97;;;;;;;6.65;50.89;96186.13;5058162;28;20440;-71
2023/01/16 01:20:56;;;;;;;4.40;1.43;;;;;;;6.60;50.57;96183.16;5066790;28;20452;-71
2023/01/16 01:23:22;;;;;;;5.70;1.10;;;;;;;6.52;51.16;96177.88;5061554;28;20175;-71
2023/01/16 01:25:48;;;;;;;1.50;1.03;;;;;;;6.49;51.10;96173.81;5061845;28;20258;-70
2023/01/16 01:28:14;;;;;;;2.70;1.10;;;;;;;6.33;51.15;96171.06;5067893;28;20218;-70
2023/01/16 01:30:40;;;;;;;1.30;0.90;;;;;;;6.44;51.53;96163.03;5064997;28;20816;-71
2023/01/16 01:33:06;;;;;;;2.33;0.80;;;;;;;6.56;51.20;96168.81;5063230;28;20194;-70
2023/01/16 01:35:32;;;;;;;3.80;1.00;;;;;;;6.68;51.11;96166.78;5062889;28;20174;-72
2023/01/16 01:37:57;;;;;;;2.23;1.00;;;;;;;6.69;50.82;96165.78;5049253;28;20512;-72
2023/01/16 01:40:23;;;;;;;2.90;1.07;;;;;;;6.63;50.90;96151.59;5068091;28;20182;-70
2023/01/16 01:42:53;;;;;;;1.73;0.97;;;;;;;6.65;51.35;96156.66;5064261;28;20317;-72
2023/01/16 01:45:27;;;;;;;1.73;0.80;;;;;;;6.67;50.75;96154.72;5068578;28;20811;-72
2023/01/16 01:48:02;;;;;;;3.57;1.30;;;;;;;6.70;50.34;96151.81;5066146;28;20425;-71
2023/01/16 01:50:37;;;;;;;2.80;1.00;;;;;;;6.71;50.78;96150.84;5061053;28;20446;-71
2023/01/16 01:53:08;;;;;;;2.83;0.80;;;;;;;6.70;50.70;96144.00;5061738;28;20802;-71
2023/01/16 01:55:34;;;;;;;4.57;1.10;;;;;;;6.67;50.69;96141.72;5046021;28;20929;-70
2023/01/16 01:58:00;;;;;;;1.43;0.80;;;;;;;6.68;50.73;96138.16;5057113;28;20429;-71
2023/01/16 02:00:27;;;;;;;2.30;1.00;;;;;;;6.70;50.69;96139.63;5060907;28;20201;-71
2023/01/16 02:03:02;;;;;;;6.33;1.13;;;;;;;6.66;50.57;96121.84;5059502;28;20461;-71
2023/01/16 02:05:32;;;;;;;5.10;1.30;;;;;;;6.71;50.71;96114.38;5067945;28;20443;-71
2023/01/16 02:07:59;;;;;;;2.57;1.00;;;;;;;6.68;50.86;96101.69;5065285;28;20425;-71
2023/01/16 02:10:38;;;;;;;5.10;0.90;;;;;;;6.61;51.00;96104.09;5060544;28;20508;-71
2023/01/16 02:13:03;;;;;;;2.40;1.20;;;;;;;6.51;51.21;96080.75;5066052;28;20520;-71
2023/01/16 02:15:29;;;;;;;1.93;0.87;;;;;;;6.49;51.23;96072.28;5063076;28;20504;-71
2023/01/16 02:21:00;;;;;;;3.73;1.00;;;;;;;6.58;50.92;96066.16;5065154;28;20202;-71
2023/01/16 02:23:56;;;;;;;2.60;1.17;;;;;;;6.56;50.85;96056.88;5058373;28;20436;-71
2023/01/16 02:26:46;;;;;;;2.43;0.90;;;;;;;6.52;51.36;96048.56;5059564;28;20528;-73
2023/01/16 02:29:34;;;;;;;2.80;1.00;;;;;;;6.47;51.08;96043.00;5064701;28;20986;-71
2023/01/16 02:32:18;;;;;;;3.30;0.80;;;;;;;6.50;51.21;96032.28;5062428;28;20449;-72
2023/01/16 02:35:03;;;;;;;5.47;1.23;;;;;;;6.47;51.75;96021.38;5055598;28;20473;-71
2023/01/16 02:37:48;;;;;;;3.57;0.97;;;;;;;6.36;51.74;96025.88;5063337;28;20420;-71
2023/01/16 02:40:38;;;;;;;2.80;0.90;;;;;;;6.50;51.69;96016.66;5066566;28;20424;-72
2023/01/16 02:43:32;;;;;;;4.40;0.80;;;;;;;6.54;51.02;96010.19;5062100;28;20493;-71
2023/01/16 02:45:57;;;;;;;1.97;1.00;;;;;;;6.65;51.17;95997.84;5042922;28;20430;-73
2023/01/16 02:48:50;;;;;;;2.17;1.13;;;;;;;6.51;51.05;95987.06;5055594;28;20504;-71
2023/01/16 02:51:49;;;;;;;2.20;1.43;;;;;;;6.67;51.18;95981.09;5063841;28;20222;-71
2023/01/16 02:54:32;;;;;;;2.40;0.93;;;;;;;6.63;51.07;95974.56;5063216;28;20815;-72
2023/01/16 02:57:10;;;;;;;2.60;1.00;;;;;;;6.57;51.08;95962.19;5059375;28;20432;-73
2023/01/16 02:59:36;;;;;;;2.03;0.70;;;;;;;6.50;51.31;95954.19;5045347;28;20421;-72
2023/01/16 03:02:02;;;;;;;5.07;1.13;;;;;;;6.57;51.04;95944.75;5061420;28;20473;-73
2023/01/16 03:04:40;;;;;;;2.20;1.00;;;;;;;6.52;51.30;95941.84;5065767;28;20554;-73
2023/01/16 03:07:14;;;;;;;4.20;1.00;;;;;;;6.48;51.82;95929.31;5028504;28;20509;-72
2023/01/16 03:09:46;;;;;;;1.03;0.73;;;;;;;6.53;51.54;95922.66;5049188;28;20419;-71
2023/01/16 03:12:35;;;;;;;3.10;0.87;;;;;;;6.53;51.37;95907.03;5064052;28;20536;-71
2023/01/16 03:15:04;;;;;;;4.33;1.13;;;;;;;6.53;51.42;95896.63;5058099;28;20453;-72
2023/01/16 03:17:44;;;;;;;2.20;1.00;;;;;;;6.41;51.79;95887.47;5066354;28;20431;-71
2023/01/16 03:20:40;;;;;;;1.70;1.23;;;;;;;6.32;52.19;95884.03;5060211;28;20512;-71
2023/01/16 03:23:12;;;;;;;2.00;0.97;;;;;;;6.36;51.90;95885.34;5035337;28;20979;-72
2023/01/16 03:25:59;;;;;;;2.37;1.10;;;;;;;6.43;51.61;95869.88;5061550;28;20429;-73
2023/01/16 03:28:34;;;;;;;3.27;1.10;;;;;;;6.37;51.73;95873.13;5062555;28;20452;-74
2023/01/16 03:31:05;;;;;;;3.93;1.00;;;;;;;6.42;51.48;95869.09;5046705;28;20467;-73
2023/01/16 03:33:44;;;;;;;5.13;0.90;;;;;;;6.43;51.45;95869.88;5047851;28;20555;-73
2023/01/16 03:36:14;;;;;;;3.47;1.17;;;;;;;6.51;51.06;95856.91;5059742;28;20428;-72
2023/01/16 03:38:44;;;;;;;2.10;0.90;;;;;;;6.59;51.27;95853.50;5062156;28;20511;-70
2023/01/16 03:41:12;;;;;;;7.80;0.97;;;;;;;6.51;51.16;95846.50;5057712;28;20458;-71
2023/01/16 03:43:38;;;;;;;1.73;0.90;;;;;;;6.48;51.47;95844.22;5068366;28;20420;-74
2023/01/16 03:46:06;;;;;;;2.83;1.10;;;;;;;6.52;51.07;95832.50;5068920;28;20432;-73
2023/01/16 03:49:02;;;;;;;1.60;0.77;;;;;;;6.46;51.67;95820.13;5062593;28;20479;-72
2023/01/16 03:51:34;;;;;;;1.60;0.80;;;;;;;6.56;51.28;95810.38;5066804;28;20449;-73
2023/01/16 03:54:25;;;;;;;2.57;0.87;;;;;;;6.58;51.11;95811.03;5068721;28;20428;-73
2023/01/16 03:56:56;;;;;;;3.07;0.93;;;;;;;6.62;51.46;95793.28;5053626;28;20437;-71
2023/01/16 03:59:22;;;;;;;7.50;1.20;;;;;;;6.58;51.09;95787.59;5062774;28;20482;-71
2023/01/16 04:01:55;;;;;;;3.20;0.83;;;;;;;6.59;51.05;95789.22;5065389;28;20555;-71
2023/01/16 04:04:26;;;;;;;5.93;1.17;;;;;;;6.52;50.79;95767.44;5060377;28;20206;-70
2023/01/16 04:06:57;;;;;;;2.37;0.90;;;;;;;6.47;51.24;95748.88;5069047;28;20958;-69
2023/01/16 04:09:35;;;;;;;1.67;0.77;;;;;;;6.48;50.80;95745.31;5064810;28;20554;-69
2023/01/16 04:12:03;;;;;;;8.40;1.10;;;;;;;6.50;51.04;95740.75;5067309;28;20799;-69
2023/01/16 04:14:30;;;;;;;3.03;1.10;;;;;;;6.51;51.11;95737.19;5067435;28;20420;-70
2023/01/16 04:16:55;;;;;;;3.83;1.00;;;;;;;6.48;51.07;95723.69;5057185;28;20422;-69
2023/01/16 04:19:22;;;;;;;2.10;1.00;;;;;;;6.51;50.68;95718.97;5063817;28;20432;-69
2023/01/16 04:21:47;;;;;;;4.90;1.07;;;;;;;6.55;50.28;95707.22;5059133;28;20637;-69
2023/01/16 04:24:14;;;;;;;2.43;0.80;;;;;;;6.55;50.95;95702.03;5059646;28;20457;-69
2023/01/16 04:26:40;;;;;;;2.20;0.97;;;;;;;6.55;50.65;95696.81;5067213;28;20208;-70
2023/01/16 04:29:05;;;;;;;3.53;1.03;;;;;;;6.41;51.18;95680.09;5068766;28;20996;-72
2023/01/16 04:31:30;;;;;;;3.30;1.13;;;;;;;6.44;51.04;95689.34;5068390;28;20264;-72
2023/01/16 04:33:56;;;;;;;1.77;0.90;;;;;;;6.48;51.06;95680.25;5065048;28;20186;-71
2023/01/16 04:36:22;;;;;;;2.27;1.17;;;;;;;6.54;51.35;95670.97;5066458;28;20185;-71
2023/01/16 04:38:47;;;;;;;3.90;1.13;;;;;;;6.53;51.25;95669.34;5067161;28;20651;-70
2023/01/16 04:41:35;;;;;;;1.97;1.07;;;;;;;6.51;51.52;95658.28;5071353;28;20214;-71
2023/01/16 04:43:58;;;;;;;5.03;1.30;;;;;;;6.35;51.48;95648.69;5067710;28;20298;-71
2023/01/16 04:46:23;;;;;;;6.57;1.27;;;;;;;6.44;51.02;95637.28;5047040;28;20925;-70
2023/01/16 04:48:49;;;;;;;1.90;1.10;;;;;;;6.41;51.48;95627.22;5060725;28;20258;-70
2023/01/16 04:51:14;;;;;;;1.37;0.90;;;;;;;6.39;50.76;95613.56;5045604;28;20231;-70
2023/01/16 04:53:40;;;;;;;4.73;1.07;;;;;;;6.31;51.25;95596.19;5041711;28;20187;-71
2023/01/16 04:56:05;;;;;;;1.63;0.90;;;;;;;6.29;51.34;95591.16;5054953;28;20187;-71
2023/01/16 04:58:31;;;;;;;7.80;0.90;;;;;;;6.21;51.65;95585.94;5053109;28;20603;-70
2023/01/16 05:00:56;;;;;;;2.50;0.93;;;;;;;6.16;51.33;95577.84;5057046;28;20549;-71
2023/01/16 05:03:22;;;;;;;2.87;0.90;;;;;;;6.14;52.00;95570.19;5060851;28;20532;-71
2023/01/16 05:05:47;;;;;;;1.70;1.20;;;;;;;6.26;51.34;95557.66;5067864;28;20277;-72
2023/01/16 05:08:15;;;;;;;3.50;1.10;;;;;;;6.11;51.54;95559.28;5060567;28;20186;-72
2023/01/16 05:10:41;;;;;;;3.37;1.20;;;;;;;6.20;51.43;95554.91;5057088;28;20254;-72
2023/01/16 05:13:06;;;;;;;2.20;0.97;;;;;;;6.22;51.41;95545.94;5043943;28;20893;-72
2023/01/16 05:15:32;;;;;;;2.07;1.07;;;;;;;6.19;51.46;95542.88;5069507;28;20689;-72
2023/01/16 05:17:58;;;;;;;1.10;0.80;;;;;;;6.20;51.36;95536.69;5063105;28;20179;-73
2023/01/16 05:20:23;;;;;;;1.77;0.80;;;;;;;6.06;51.47;95527.75;5065918;28;20305;-73
2023/01/16 05:22:49;;;;;;;3.10;1.00;;;;;;;6.14;51.39;95519.97;5055997;28;20210;-72
2023/01/16 05:25:14;;;;;;;1.10;0.80;;;;;;;6.14;51.14;95517.34;5061172;28;20190;-70
2023/01/16 05:27:39;;;;;;;4.43;1.10;;;;;;;6.20;50.95;95516.69;5049732;28;20183;-73
2023/01/16 05:30:06;;;;;;;4.10;0.97;;;;;;;6.13;51.48;95505.31;5063811;28;20924;-71
2023/01/16 05:32:31;;;;;;;3.33;1.27;;;;;;;6.08;51.38;95499.78;5064720;28;20210;-73
2023/01/16 05:35:00;;;;;;;1.60;0.87;;;;;;;6.09;51.20;95493.63;5058655;28;20533;-72
2023/01/16 05:37:25;;;;;;;2.70;1.10;;;;;;;6.10;50.95;95474.44;5066462;28;20227;-70
2023/01/16 05:39:51;;;;;;;2.23;1.17;;;;;;;6.18;51.22;95476.22;5060047;28;20465;-72
2023/01/16 05:42:24;;;;;;;3.33;1.10;;;;;;;6.08;51.48;95466.00;5066032;28;20214;-70
2023/01/16 05:44:53;;;;;;;2.73;1.27;;;;;;;6.11;51.14;95455.25;5051535;28;20190;-71
2023/01/16 05:47:19;;;;;;;1.37;1.10;;;;;;;6.21;51.06;95440.25;5059517;28;20422;-72
2023/01/16 05:49:44;;;;;;;2.50;1.00;;;;;;;6.18;50.86;95437.19;5058674;28;20422;-70
2023/01/16 05:52:10;;;;;;;3.20;1.10;;;;;;;6.24;50.75;95421.72;5050183;28;20444;-70
2023/01/16 05:54:36;;;;;;;1.00;0.80;;;;;;;6.19;50.69;95424.00;5060200;28;20194;-72
2023/01/16 05:57:01;;;;;;;3.00;1.10;;;;;;;6.25;50.78;95410.34;5045886;28;20190;-72
2023/01/16 05:59:27;;;;;;;2.00;1.10;;;;;;;6.23;50.33;95407.09;5059661;28;20179;-73
2023/01/16 06:01:52;;;;;;;1.80;1.00;;;;;;;6.18;50.25;95396.38;5041975;28;20214;-71
2023/01/16 06:04:19;;;;;;;2.90;0.90;;;;;;;6.26;50.51;95385.13;5064813;28;20182;-72
2023/01/16 06:06:45;;;;;;;2.27;0.93;;;;;;;6.29;50.27;95396.03;5051865;28;20179;-71
2023/01/16 06:09:11;;;;;;;2.77;0.97;;;;;;;6.15;50.09;95392.31;5066945;28;20424;-72
2023/01/16 06:11:36;;;;;;;1.60;0.80;;;;;;;6.23;49.75;95375.06;5060184;28;20978;-72
2023/01/16 06:14:04;;;;;;;2.67;1.17;;;;;;;6.22;49.89;95379.44;5060999;28;20191;-72
2023/01/16 06:16:32;;;;;;;1.93;1.10;;;;;;;6.28;49.69;95367.56;5059885;28;20200;-72
2023/01/16 06:18:58;;;;;;;2.37;1.10;;;;;;;6.29;49.74;95358.78;5045835;28;20436;-72
2023/01/16 06:21:23;;;;;;;3.00;1.20;;;;;;;6.35;49.53;95336.47;5059176;28;20456;-72
2023/01/16 06:23:49;;;;;;;3.43;0.93;;;;;;;6.27;50.14;95339.91;5051654;28;20273;-72
2023/01/16 06:26:14;;;;;;;3.47;1.10;;;;;;;6.26;49.87;95339.13;5067012;28;20190;-71
2023/01/16 06:28:40;;;;;;;1.63;0.90;;;;;;;6.25;50.25;95332.28;5064470;28;20257;-71
2023/01/16 06:31:06;;;;;;;1.87;1.03;;;;;;;6.33;50.17;95323.63;5052893;28;20210;-73
2023/01/16 06:33:32;;;;;;;2.30;1.20;;;;;;;6.25;50.40;95326.25;5043517;28;20187;-71
2023/01/16 06:35:57;;;;;;;2.50;1.03;;;;;;;6.29;50.43;95312.78;5063474;28;20425;-72
2023/01/16 06:38:23;;;;;;;4.10;1.27;;;;;;;6.19;50.96;95301.75;5060508;28;20198;-72
2023/01/16 06:40:48;;;;;;;1.30;0.90;;;;;;;6.14;51.22;95304.06;5057920;28;20207;-71
2023/01/16 06:43:16;;;;;;;3.10;1.37;;;;;;;6.14;51.09;95297.06;5056801;28;20241;-72
2023/01/16 06:45:42;;;;;;;5.17;1.40;;;;;;;6.14;51.17;95288.47;5062550;28;20228;-74
2023/01/16 06:48:07;;;;;;;3.43;1.47;;;;;;;6.04;51.38;95293.06;5053208;28;20936;-71
2023/01/16 06:50:33;;;;;;;2.13;1.40;;;;;;;5.97;51.81;95283.31;5050379;28;20562;-72
2023/01/16 06:52:59;;;;;;;3.57;1.50;;;;;;;5.96;52.10;95281.69;5049988;28;20793;-72
2023/01/16 06:55:24;;;;;;;3.03;1.50;;;;;;;5.81;52.26;95278.19;5054822;28;20208;-72
2023/01/16 06:57:50;;;;;;;1.90;1.20;;;;;;;5.95;51.94;95268.88;5067850;28;20186;-72
2023/01/16 07:00:15;;;;;;;2.83;1.20;;;;;;;5.91;51.70;95277.97;5053246;28;20184;-72
2023/01/16 07:02:41;;;;;;;4.07;1.77;;;;;;;5.87;51.88;95269.72;5042675;28;20214;-74
2023/01/16 07:05:09;;;;;;;3.90;1.63;;;;;;;5.92;52.04;95259.59;5048817;28;20266;-74
2023/01/16 07:07:36;;;;;;;2.57;1.57;;;;;;;5.82;52.43;95253.81;5043877;28;20178;-74
2023/01/16 07:10:02;;;;;;;4.97;1.60;;;;;;;5.78;52.32;95244.75;5053868;28;20921;-74
2023/01/16 07:12:28;;;;;;;2.90;1.30;;;;;;;5.73;52.19;95239.25;5042676;28;20445;-74
2023/01/16 07:23:26;;;;;;;3.60;1.87;;;;;;;5.78;52.43;95222.16;5036841;28;20830;-73
2023/01/16 07:25:53;;;;;;;4.37;1.80;;;;;;;5.42;52.67;95216.66;5040586;28;20432;-73
2023/01/16 07:28:18;;;;;;;2.50;1.60;;;;;;;5.73;52.20;95213.25;5053726;28;20421;-73
2023/01/16 07:30:44;;;;;;;4.20;1.47;;;;;;;5.79;52.09;95204.78;5051405;28;20485;-74
2023/01/16 07:33:10;;;;;;;3.43;1.60;;;;;;;5.65;52.15;95196.72;5057789;28;20183;-73
2023/01/16 07:35:36;;;;;;;1.83;1.20;;;;;;;5.67;52.55;95194.75;5051729;28;20424;-73
2023/01/16 07:38:02;;;;;;;1.87;1.47;;;;;;;5.58;52.77;95193.19;5060835;28;20921;-74
2023/01/16 07:40:27;;;;;;;2.17;1.77;;;;;;;5.66;52.67;95190.56;5036294;28;20183;-74
2023/01/16 07:42:53;;;;;;;2.27;1.47;;;;;;;5.81;51.93;95192.41;5034392;28;20553;-74
2023/01/16 07:45:18;;;;;;;2.47;1.70;;;;;;;5.84;51.89;95179.06;5034206;28;20211;-73
2023/01/16 07:47:44;;;;;;;10.20;1.97;;;;;;;5.72;52.40;95176.06;5050340;28;20176;-72
2023/01/16 07:50:09;;;;;;;3.50;1.87;;;;;;;5.72;52.14;95165.66;5055183;28;20179;-73
2023/01/16 07:52:35;;;;;;;1.80;1.70;;;;;;;5.79;52.46;95168.38;5055679;28;20569;-74
2023/01/16 07:55:00;;;;;;;1.90;1.63;;;;;;;5.86;52.24;95158.91;5048626;28;20741;-73
2023/01/16 07:57:26;;;;;;;5.40;1.87;;;;;;;5.84;52.42;95153.91;5031288;28;20212;-74
2023/01/16 07:59:51;;;;;;;3.03;1.80;;;;;;;5.82;52.43;95149.81;5032041;28;20184;-73
2023/01/16 08:02:17;;;;;;;3.93;1.90;;;;;;;5.93;51.93;95141.63;5036329;28;20556;-74
2023/01/16 08:04:42;;;;;;;4.57;1.83;;;;;;;5.90;52.33;95136.78;5047084;28;20182;-74
2023/01/16 08:07:08;;;;;;;3.63;2.00;;;;;;;5.99;51.87;95125.38;5040315;28;20655;-73
2023/01/16 08:09:33;;;;;;;2.77;1.97;;;;;;;6.05;52.11;95117.88;5045229;28;20597;-73
2023/01/16 08:11:59;;;;;;;7.17;2.03;;;;;;;6.08;51.74;95120.09;5038872;28;20203;-73
2023/01/16 08:14:24;;;;;;;3.73;1.90;;;;;;;6.01;52.22;95103.59;5044179;28;20210;-73
2023/01/16 08:16:50;;;;;;;2.30;1.90;;;;;;;6.07;51.45;95102.88;5038420;28;20180;-75
2023/01/16 08:19:15;;;;;;;2.67;1.50;;;;;;;6.05;51.71;95095.25;5037660;28;20180;-73
2023/01/16 08:21:41;;;;;;;3.63;1.77;;;;;;;6.11;51.35;95086.75;5046157;28;20816;-74
2023/01/16 08:24:06;;;;;;;4.57;1.80;;;;;;;6.10;51.19;95095.56;5038678;28;20182;-72
2023/01/16 08:26:32;;;;;;;6.27;1.50;;;;;;;6.10;51.11;95090.34;5046534;28;20209;-74
2023/01/16 08:28:58;;;;;;;2.33;1.60;;;;;;;6.17;50.63;95087.84;5046096;28;20952;-73
2023/01/16 08:31:24;;;;;;;3.53;1.37;;;;;;;6.26;50.21;95078.97;5042258;28;20215;-74
2023/01/16 08:33:49;;;;;;;1.50;1.33;;;;;;;6.33;50.00;95075.66;5030300;28;20849;-73
2023/01/16 08:36:16;;;;;;;2.70;1.70;;;;;;;6.39;49.87;95061.94;5046234;28;20216;-73
2023/01/16 08:38:42;;;;;;;2.37;1.37;;;;;;;6.44;49.79;95070.84;5033593;28;20218;-73
2023/01/16 08:51:21;;;;;;;4.87;1.80;;;;;;;6.43;49.63;95064.00;5042574;28;20966;-74
2023/01/16 08:52:20;;;;;;;4.10;1.50;;;;;;;6.50;48.48;95048.50;5028492;28;20518;-74
2023/01/16 08:54:45;;;;;;;2.63;1.33;;;;;;;6.52;48.39;95049.13;5049388;28;20572;-75
2023/01/16 08:57:11;;;;;;;2.80;1.00;;;;;;;6.30;48.61;95054.22;5052695;28;20181;-75
2023/01/16 08:59:36;;;;;;;11.27;1.40;;;;;;;6.52;48.16;95051.72;5049144;28;20186;-74
2023/01/16 09:02:02;;;;;;;2.50;1.30;;;;;;;6.63;47.51;95047.84;5048611;28;20215;-74
2023/01/16 09:04:28;;;;;;;4.53;1.17;;;;;;;6.57;47.72;95046.78;5054215;28;20296;-75
2023/01/16 09:06:53;;;;;;;2.43;1.43;;;;;;;6.53;47.47;95042.94;5045186;28;20910;-74
2023/01/16 09:09:19;;;;;;;3.30;1.30;;;;;;;6.60;47.51;95059.44;5057350;28;20186;-74
2023/01/16 09:14:28;;;;;;;2.60;1.37;;;;;;;6.64;47.05;95065.09;5052744;28;20512;-73
2023/01/16 09:16:54;;;;;;;3.83;1.57;;;;;;;6.72;47.07;95078.03;5053815;28;20429;-73
2023/01/16 09:19:19;;;;;;;2.33;1.20;;;;;;;6.78;46.95;95088.69;5055496;28;20306;-73
2023/01/16 09:21:45;;;;;;;2.13;1.20;;;;;;;6.67;46.57;95100.38;5056378;28;20713;-73
2023/01/16 09:24:10;;;;;;;3.00;1.17;;;;;;;6.74;46.65;95091.66;5040103;28;20194;-74
2023/01/16 09:26:36;;;;;;;1.30;1.10;;;;;;;6.55;46.83;95082.56;5059728;28;20171;-74
2023/01/16 09:29:01;;;;;;;2.87;1.20;;;;;;;6.52;46.95;95075.16;5049944;28;20184;-74
2023/01/16 09:31:27;;;;;;;3.63;1.57;;;;;;;6.41;46.96;95065.19;5061710;28;20217;-74
2023/01/16 09:33:54;;;;;;;1.20;0.90;;;;;;;6.61;46.92;95062.88;5056575;28;20190;-73
2023/01/16 09:36:20;;;;;;;3.70;1.30;;;;;;;6.77;46.67;95054.06;5066404;28;20198;-73
2023/01/16 09:38:45;;;;;;;8.93;1.80;;;;;;;6.67;46.31;95048.31;5064002;28;20425;-73
2023/01/16 09:43:35;;;;;;;1.90;1.60;;;;;;;6.79;46.54;95030.44;5065467;28;20520;-74
2023/01/16 09:44:07;;;;;;;3.17;1.47;;;;;;;6.92;46.42;95035.81;5064909;28;20201;-73
2023/01/16 09:46:37;;;;;;;2.90;1.23;;;;;;;6.93;46.78;95041.84;5056936;28;21125;-74
2023/01/16 09:49:27;;;;;;;1.40;1.20;;;;;;;6.81;46.02;95033.66;5061207;28;20421;-75
2023/01/16 10:00:16;;;;;;;4.60;1.47;;;;;;;6.82;45.76;95036.06;5057252;28;20506;-74
2023/01/16 10:02:41;;;;;;;6.20;1.27;;;;;;;6.80;45.96;95021.63;5050131;28;20471;-73
2023/01/16 10:05:07;;;;;;;2.07;1.20;;;;;;;6.83;45.37;95016.88;5049709;28;20430;-72
2023/01/16 10:07:38;;;;;;;1.60;1.17;;;;;;;6.94;45.20;95014.78;5057603;28;20186;-74
2023/01/16 10:10:40;;;;;;;2.33;1.07;;;;;;;7.00;45.50;95001.81;5042020;28;20266;-73
2023/01/16 10:13:43;;;;;;;1.70;1.40;;;;;;;6.88;44.63;94990.28;5051424;28;20508;-72
2023/01/16 10:16:30;;;;;;;3.57;1.10;;;;;;;6.79;44.45;94981.78;5041655;28;20445;-74
2023/01/16 10:19:11;;;;;;;1.93;1.00;;;;;;;6.79;44.83;94973.16;5050221;28;20452;-74
2023/01/16 10:22:03;;;;;;;1.27;0.90;;;;;;;6.86;44.44;94969.63;5062285;28;20460;-74
2023/01/16 10:24:35;;;;;;;1.50;1.00;;;;;;;6.86;43.26;94964.44;5040328;28;20503;-74
2023/01/16 10:27:16;;;;;;;1.87;1.27;;;;;;;6.92;43.44;94960.28;5045584;28;20430;-73
2023/01/16 10:29:51;;;;;;;2.20;1.10;;;;;;;7.05;42.72;94946.59;5043869;28;20782;-73
2023/01/16 10:32:24;;;;;;;1.13;0.80;;;;;;;6.83;42.76;94949.16;5064207;28;20590;-74
2023/01/16 10:35:18;;;;;;;1.60;0.87;;;;;;;6.74;42.20;94945.88;5052097;28;20903;-74
2023/01/16 10:37:44;;;;;;;1.73;1.03;;;;;;;7.08;41.99;94927.97;5005927;28;20480;-74
2023/01/16 10:40:14;;;;;;;1.60;1.00;;;;;;;7.19;41.96;94931.91;5053268;28;20430;-74
2023/01/16 10:50:59;;;;;;;0.97;0.77;;;;;;;7.25;42.50;94897.28;5046259;28;20437;-75
2023/01/16 10:53:25;;;;;;;1.00;0.90;;;;;;;7.34;42.56;94908.38;5047026;28;20421;-75
2023/01/16 10:55:52;;;;;;;1.10;1.00;;;;;;;7.49;42.71;94895.28;5056041;28;20467;-73
2023/01/16 10:58:21;;;;;;;2.80;0.80;;;;;;;7.40;42.49;94907.63;5058355;28;20291;-75
2023/01/16 11:00:47;;;;;;;1.20;0.70;;;;;;;7.54;42.41;94892.88;5058519;28;20481;-75
2023/01/16 11:03:19;;;;;;;3.40;1.00;;;;;;;7.67;42.50;94892.97;5045683;28;20493;-75
2023/01/16 11:05:45;;;;;;;1.30;1.10;;;;;;;7.63;42.37;94885.75;5060048;28;20559;-74
2023/01/16 11:08:18;;;;;;;1.30;1.00;;;;;;;7.90;42.84;94880.69;5052737;28;20425;-74
2023/01/16 11:10:48;;;;;;;1.20;0.80;;;;;;;7.56;43.79;94879.69;5065157;28;20269;-74
2023/01/16 11:18:59;;;;;;;1.00;0.80;;;;;;;7.79;44.96;94854.16;5040052;28;20422;-74
2023/01/16 11:21:29;;;;;;;1.90;0.80;;;;;;;7.90;45.48;94844.97;5049271;28;20543;-74
2023/01/16 11:24:00;;;;;;;1.10;1.00;;;;;;;8.07;45.13;94845.44;5040883;28;20441;-74
2023/01/16 11:26:27;;;;;;;2.40;1.00;;;;;;;7.72;46.67;94831.66;5053790;28;20964;-73
2023/01/16 11:28:53;;;;;;;0.90;0.63;;;;;;;7.56;47.63;94832.78;5056473;28;20792;-75
2023/01/16 11:31:25;;;;;;;3.10;0.90;;;;;;;7.86;47.35;94819.47;5061536;28;20453;-74
2023/01/16 11:34:01;;;;;;;0.83;0.67;;;;;;;7.84;47.94;94861.41;5063245;28;20421;-75
2023/01/16 11:36:31;;;;;;;1.50;0.60;;;;;;;7.77;48.58;94811.81;5066755;28;20883;-75
2023/01/16 11:38:57;;;;;;;1.10;0.90;;;;;;;7.84;48.30;94797.00;5060046;28;20766;-74
2023/01/16 11:41:32;;;;;;;0.90;0.67;;;;;;;8.01;47.92;94783.63;5081041;28;20468;-72
2023/01/16 11:47:04;;;;;;;1.00;0.70;;;;;;;7.95;48.10;94772.19;5063803;28;20958;-74
2023/01/16 11:49:36;;;;;;;0.90;0.67;;;;;;;8.02;48.16;94764.38;5068890;28;20440;-73
2023/01/16 11:52:05;;;;;;;1.83;0.80;;;;;;;7.99;47.95;94749.13;5058472;28;20207;-73
2023/01/16 11:54:32;;;;;;;1.57;0.63;;;;;;;8.05;47.80;94753.56;5053783;28;20417;-77
2023/01/16 11:57:00;;;;;;;1.03;0.67;;;;;;;8.28;47.68;94740.16;5049901;28;21103;-73
2023/01/16 11:59:44;;;;;;;1.20;0.87;;;;;;;8.26;47.54;94743.97;5050266;28;20433;-76
2023/01/16 12:02:28;;;;;;;2.13;0.83;;;;;;;8.10;48.81;94721.66;5041537;28;20995;-72
2023/01/16 12:08:22;;;;;;;1.00;0.70;;;;;;;7.92;49.37;94717.81;5039816;28;20448;-74
2023/01/16 12:10:59;;;;;;;2.13;1.00;;;;;;;8.07;49.50;94715.03;5040263;28;20479;-73
2023/01/16 12:16:30;;;;;;;3.57;1.00;;;;;;;8.40;48.83;94690.78;5059385;28;20832;-73
2023/01/16 12:19:07;;;;;;;0.87;0.60;;;;;;;8.38;48.89;94681.56;5045735;28;20414;-72
2023/01/16 12:21:39;;;;;;;2.23;0.90;;;;;;;8.38;49.64;94684.97;5048553;28;20471;-72
2023/01/16 12:24:12;;;;;;;0.90;0.60;;;;;;;8.22;49.73;94670.50;5040339;28;20457;-72
2023/01/16 12:27:08;;;;;;;1.80;0.83;;;;;;;8.40;49.16;94656.88;5041847;28;20935;-71
2023/01/16 12:30:21;;;;;;;1.40;0.90;;;;;;;8.41;49.39;94663.69;5064476;28;20429;-72
2023/01/16 12:33:09;;;;;;;1.93;0.60;;;;;;;8.37;49.44;94641.59;5059796;28;20457;-70
2023/01/16 12:35:44;;;;;;;1.00;0.70;;;;;;;8.30;49.65;94646.03;5045290;28;20413;-73
2023/01/16 12:38:19;;;;;;;0.90;0.70;;;;;;;8.17;50.16;94646.03;5059238;28;20425;-71
2023/01/16 12:40:54;;;;;;;1.10;0.80;;;;;;;8.42;49.42;94634.00;5070352;28;20801;-71
2023/01/16 12:43:31;;;;;;;6.23;0.80;;;;;;;8.62;49.36;94635.78;5064497;28;20453;-73
2023/01/16 12:45:59;;;;;;;1.10;0.90;;;;;;;8.47;49.37;94625.56;5062392;28;20424;-73
2023/01/16 12:48:51;;;;;;;1.10;0.90;;;;;;;8.54;49.64;94617.75;5048803;28;20448;-73